sensor_id;sensor_type;location;lat;lon;timestamp;P1;durP1;ratioP1;P2;durP2;ratioP2
27428;SDS011;14881;48.092;11.574;2023-12-22T00:02:13;2.08;;;1.08;;
27428;SDS011;14881;48.092;11.574;2023-12-22T00:04:39;1.15;;;0.95;;
27428;SDS011;14881;48.092;11.574;2023-12-22T00:07:06;1.95;;;0.80;;
27428;SDS011;14881;48.092;11.574;2023-12-22T00:09:32;1.90;;;0.95;;
27428;SDS011;14881;48.092;11.574;2023-12-22T00:11:59;4.25;;;1.52;;
27428;SDS011;14881;48.092;11.574;2023-12-22T00:14:25;3.33;;;1.00;;
27428;SDS011;14881;48.092;11.574;2023-12-22T00:16:51;2.58;;;1.05;;
27428;SDS011;14881;48.092;11.574;2023-12-22T00:19:18;3.67;;;1.02;;
27428;SDS011;14881;48.092;11.574;2023-12-22T00:21:44;3.10;;;1.00;;
27428;SDS011;14881;48.092;11.574;2023-12-22T00:24:11;1.45;;;0.70;;
27428;SDS011;14881;48.092;11.574;2023-12-22T00:26:38;0.47;;;0.47;;
27428;SDS011;14881;48.092;11.574;2023-12-22T00:29:04;1.20;;;0.40;;
27428;SDS011;14881;48.092;11.574;2023-12-22T00:31:31;1.15;;;0.85;;
27428;SDS011;14881;48.092;11.574;2023-12-22T00:33:57;0.70;;;0.50;;
27428;SDS011;14881;48.092;11.574;2023-12-22T00:36:23;1.13;;;0.90;;
27428;SDS011;14881;48.092;11.574;2023-12-22T00:38:50;0.50;;;0.50;;
27428;SDS011;14881;48.092;11.574;2023-12-22T00:41:17;2.28;;;0.60;;
27428;SDS011;14881;48.092;11.574;2023-12-22T00:43:44;0.77;;;0.65;;
27428;SDS011;14881;48.092;11.574;2023-12-22T00:46:10;0.60;;;0.60;;
27428;SDS011;14881;48.092;11.574;2023-12-22T00:48:36;1.13;;;0.80;;
27428;SDS011;14881;48.092;11.574;2023-12-22T00:51:03;0.80;;;0.80;;
27428;SDS011;14881;48.092;11.574;2023-12-22T00:53:31;1.10;;;0.73;;
27428;SDS011;14881;48.092;11.574;2023-12-22T00:55:59;2.28;;;0.98;;
27428;SDS011;14881;48.092;11.574;2023-12-22T00:58:26;0.95;;;0.80;;
27428;SDS011;14881;48.092;11.574;2023-12-22T01:00:53;1.05;;;0.98;;
27428;SDS011;14881;48.092;11.574;2023-12-22T01:03:19;1.42;;;1.00;;
27428;SDS011;14881;48.092;11.574;2023-12-22T01:05:46;1.17;;;1.08;;
27428;SDS011;14881;48.092;11.574;2023-12-22T01:08:12;1.48;;;1.10;;
27428;SDS011;14881;48.092;11.574;2023-12-22T01:10:39;1.33;;;1.23;;
27428;SDS011;14881;48.092;11.574;2023-12-22T01:13:05;1.20;;;1.10;;
27428;SDS011;14881;48.092;11.574;2023-12-22T01:15:32;2.25;;;1.08;;
27428;SDS011;14881;48.092;11.574;2023-12-22T01:17:59;1.88;;;1.05;;
27428;SDS011;14881;48.092;11.574;2023-12-22T01:20:25;1.25;;;1.00;;
27428;SDS011;14881;48.092;11.574;2023-12-22T01:22:51;1.05;;;0.93;;
27428;SDS011;14881;48.092;11.574;2023-12-22T01:25:18;3.30;;;1.20;;
27428;SDS011;14881;48.092;11.574;2023-12-22T01:27:44;2.03;;;1.08;;
27428;SDS011;14881;48.092;11.574;2023-12-22T01:30:12;1.60;;;1.10;;
27428;SDS011;14881;48.092;11.574;2023-12-22T01:32:39;2.75;;;1.25;;
27428;SDS011;14881;48.092;11.574;2023-12-22T01:35:05;2.58;;;1.20;;
27428;SDS011;14881;48.092;11.574;2023-12-22T01:37:35;1.48;;;0.93;;
27428;SDS011;14881;48.092;11.574;2023-12-22T01:40:02;2.55;;;1.30;;
27428;SDS011;14881;48.092;11.574;2023-12-22T01:42:28;0.90;;;0.90;;
27428;SDS011;14881;48.092;11.574;2023-12-22T01:44:55;1.10;;;0.80;;
27428;SDS011;14881;48.092;11.574;2023-12-22T01:47:21;1.35;;;0.90;;
27428;SDS011;14881;48.092;11.574;2023-12-22T01:49:48;1.50;;;1.08;;
27428;SDS011;14881;48.092;11.574;2023-12-22T01:52:15;1.42;;;0.88;;
27428;SDS011;14881;48.092;11.574;2023-12-22T01:54:43;0.88;;;0.88;;
27428;SDS011;14881;48.092;11.574;2023-12-22T01:57:09;2.08;;;1.23;;
27428;SDS011;14881;48.092;11.574;2023-12-22T01:59:39;2.28;;;0.90;;
27428;SDS011;14881;48.092;11.574;2023-12-22T02:02:06;1.48;;;0.90;;
27428;SDS011;14881;48.092;11.574;2023-12-22T02:04:32;1.20;;;1.10;;
27428;SDS011;14881;48.092;11.574;2023-12-22T02:07:00;1.02;;;0.93;;
27428;SDS011;14881;48.092;11.574;2023-12-22T02:09:28;1.15;;;1.02;;
27428;SDS011;14881;48.092;11.574;2023-12-22T02:11:54;0.95;;;0.82;;
27428;SDS011;14881;48.092;11.574;2023-12-22T02:14:20;1.52;;;1.00;;
27428;SDS011;14881;48.092;11.574;2023-12-22T02:16:48;1.25;;;1.15;;
27428;SDS011;14881;48.092;11.574;2023-12-22T02:19:23;0.70;;;0.70;;
27428;SDS011;14881;48.092;11.574;2023-12-22T02:22:06;1.10;;;1.00;;
27428;SDS011;14881;48.092;11.574;2023-12-22T02:24:36;0.85;;;0.85;;
27428;SDS011;14881;48.092;11.574;2023-12-22T02:27:03;1.10;;;1.00;;
27428;SDS011;14881;48.092;11.574;2023-12-22T02:29:31;1.15;;;1.05;;
27428;SDS011;14881;48.092;11.574;2023-12-22T02:32:01;1.42;;;1.05;;
27428;SDS011;14881;48.092;11.574;2023-12-22T02:34:31;0.80;;;0.80;;
27428;SDS011;14881;48.092;11.574;2023-12-22T02:37:03;1.52;;;0.90;;
27428;SDS011;14881;48.092;11.574;2023-12-22T02:39:34;1.08;;;0.90;;
27428;SDS011;14881;48.092;11.574;2023-12-22T02:42:02;0.80;;;0.80;;
27428;SDS011;14881;48.092;11.574;2023-12-22T02:44:29;0.98;;;0.98;;
27428;SDS011;14881;48.092;11.574;2023-12-22T02:46:56;1.20;;;1.20;;
27428;SDS011;14881;48.092;11.574;2023-12-22T02:49:22;1.23;;;1.13;;
27428;SDS011;14881;48.092;11.574;2023-12-22T02:51:49;0.88;;;0.88;;
27428;SDS011;14881;48.092;11.574;2023-12-22T02:54:15;0.70;;;0.70;;
27428;SDS011;14881;48.092;11.574;2023-12-22T02:56:41;3.15;;;0.98;;
27428;SDS011;14881;48.092;11.574;2023-12-22T02:59:09;0.60;;;0.60;;
27428;SDS011;14881;48.092;11.574;2023-12-22T03:01:35;0.90;;;0.90;;
27428;SDS011;14881;48.092;11.574;2023-12-22T03:04:01;1.35;;;0.80;;
27428;SDS011;14881;48.092;11.574;2023-12-22T03:06:28;1.23;;;0.70;;
27428;SDS011;14881;48.092;11.574;2023-12-22T03:08:54;0.70;;;0.65;;
27428;SDS011;14881;48.092;11.574;2023-12-22T03:11:21;0.75;;;0.70;;
27428;SDS011;14881;48.092;11.574;2023-12-22T03:13:47;0.70;;;0.70;;
27428;SDS011;14881;48.092;11.574;2023-12-22T03:16:14;0.73;;;0.73;;
27428;SDS011;14881;48.092;11.574;2023-12-22T03:18:40;0.80;;;0.80;;
27428;SDS011;14881;48.092;11.574;2023-12-22T03:21:07;0.60;;;0.60;;
27428;SDS011;14881;48.092;11.574;2023-12-22T03:23:33;0.70;;;0.70;;
27428;SDS011;14881;48.092;11.574;2023-12-22T03:26:02;0.50;;;0.50;;
27428;SDS011;14881;48.092;11.574;2023-12-22T03:28:28;0.60;;;0.60;;
27428;SDS011;14881;48.092;11.574;2023-12-22T03:30:55;0.65;;;0.63;;
27428;SDS011;14881;48.092;11.574;2023-12-22T03:33:22;0.65;;;0.60;;
27428;SDS011;14881;48.092;11.574;2023-12-22T03:35:48;0.60;;;0.57;;
27428;SDS011;14881;48.092;11.574;2023-12-22T03:38:15;0.40;;;0.40;;
27428;SDS011;14881;48.092;11.574;2023-12-22T03:40:42;0.95;;;0.60;;
27428;SDS011;14881;48.092;11.574;2023-12-22T03:43:08;0.60;;;0.60;;
27428;SDS011;14881;48.092;11.574;2023-12-22T03:45:34;2.17;;;0.70;;
27428;SDS011;14881;48.092;11.574;2023-12-22T03:48:01;0.60;;;0.60;;
27428;SDS011;14881;48.092;11.574;2023-12-22T03:50:28;0.85;;;0.75;;
27428;SDS011;14881;48.092;11.574;2023-12-22T03:52:54;1.15;;;0.90;;
27428;SDS011;14881;48.092;11.574;2023-12-22T03:55:22;2.13;;;1.17;;
27428;SDS011;14881;48.092;11.574;2023-12-22T03:57:48;1.65;;;1.25;;
27428;SDS011;14881;48.092;11.574;2023-12-22T04:00:15;1.88;;;1.40;;
27428;SDS011;14881;48.092;11.574;2023-12-22T04:02:42;2.25;;;1.00;;
27428;SDS011;14881;48.092;11.574;2023-12-22T04:05:10;1.58;;;1.00;;
27428;SDS011;14881;48.092;11.574;2023-12-22T04:07:38;2.30;;;1.50;;
27428;SDS011;14881;48.092;11.574;2023-12-22T04:10:04;3.05;;;1.30;;
27428;SDS011;14881;48.092;11.574;2023-12-22T04:12:32;5.07;;;1.30;;
27428;SDS011;14881;48.092;11.574;2023-12-22T04:14:58;4.10;;;1.20;;
27428;SDS011;14881;48.092;11.574;2023-12-22T04:17:24;2.47;;;1.00;;
27428;SDS011;14881;48.092;11.574;2023-12-22T04:19:51;4.75;;;1.25;;
27428;SDS011;14881;48.092;11.574;2023-12-22T04:22:18;3.95;;;1.10;;
27428;SDS011;14881;48.092;11.574;2023-12-22T04:24:45;4.15;;;1.10;;
27428;SDS011;14881;48.092;11.574;2023-12-22T04:27:12;6.15;;;1.30;;
27428;SDS011;14881;48.092;11.574;2023-12-22T04:29:38;1.05;;;0.85;;
27428;SDS011;14881;48.092;11.574;2023-12-22T04:32:05;3.17;;;1.27;;
27428;SDS011;14881;48.092;11.574;2023-12-22T04:34:31;3.75;;;1.05;;
27428;SDS011;14881;48.092;11.574;2023-12-22T04:36:58;3.88;;;1.10;;
27428;SDS011;14881;48.092;11.574;2023-12-22T04:39:24;3.95;;;1.10;;
27428;SDS011;14881;48.092;11.574;2023-12-22T04:41:53;3.05;;;1.10;;
27428;SDS011;14881;48.092;11.574;2023-12-22T04:44:19;2.17;;;1.08;;
27428;SDS011;14881;48.092;11.574;2023-12-22T04:46:46;4.00;;;1.23;;
27428;SDS011;14881;48.092;11.574;2023-12-22T04:49:12;2.75;;;1.13;;
27428;SDS011;14881;48.092;11.574;2023-12-22T04:51:39;4.15;;;1.33;;
27428;SDS011;14881;48.092;11.574;2023-12-22T04:54:05;2.60;;;1.20;;
27428;SDS011;14881;48.092;11.574;2023-12-22T04:56:31;1.52;;;0.95;;
27428;SDS011;14881;48.092;11.574;2023-12-22T04:58:58;2.70;;;1.08;;
27428;SDS011;14881;48.092;11.574;2023-12-22T05:01:25;3.20;;;1.00;;
27428;SDS011;14881;48.092;11.574;2023-12-22T05:03:51;2.72;;;0.95;;
27428;SDS011;14881;48.092;11.574;2023-12-22T05:06:19;2.90;;;1.35;;
27428;SDS011;14881;48.092;11.574;2023-12-22T05:08:46;2.95;;;1.23;;
27428;SDS011;14881;48.092;11.574;2023-12-22T05:11:12;4.30;;;1.13;;
27428;SDS011;14881;48.092;11.574;2023-12-22T05:13:39;2.28;;;1.00;;
27428;SDS011;14881;48.092;11.574;2023-12-22T05:16:06;3.90;;;1.50;;
27428;SDS011;14881;48.092;11.574;2023-12-22T05:18:33;1.33;;;1.13;;
27428;SDS011;14881;48.092;11.574;2023-12-22T05:20:59;4.05;;;1.30;;
27428;SDS011;14881;48.092;11.574;2023-12-22T05:23:25;4.40;;;1.30;;
27428;SDS011;14881;48.092;11.574;2023-12-22T05:25:52;5.15;;;1.50;;
27428;SDS011;14881;48.092;11.574;2023-12-22T05:28:18;4.03;;;1.15;;
27428;SDS011;14881;48.092;11.574;2023-12-22T05:30:45;7.68;;;1.67;;
27428;SDS011;14881;48.092;11.574;2023-12-22T05:33:13;5.45;;;1.35;;
27428;SDS011;14881;48.092;11.574;2023-12-22T05:35:39;3.80;;;1.52;;
27428;SDS011;14881;48.092;11.574;2023-12-22T05:38:06;2.40;;;1.10;;
27428;SDS011;14881;48.092;11.574;2023-12-22T05:40:33;0.73;;;0.73;;
27428;SDS011;14881;48.092;11.574;2023-12-22T05:42:59;6.55;;;1.15;;
27428;SDS011;14881;48.092;11.574;2023-12-22T05:45:26;3.45;;;1.10;;
27428;SDS011;14881;48.092;11.574;2023-12-22T05:47:53;3.25;;;1.25;;
27428;SDS011;14881;48.092;11.574;2023-12-22T05:50:20;3.65;;;1.13;;
27428;SDS011;14881;48.092;11.574;2023-12-22T05:52:47;2.25;;;1.23;;
27428;SDS011;14881;48.092;11.574;2023-12-22T05:55:13;2.80;;;1.20;;
27428;SDS011;14881;48.092;11.574;2023-12-22T05:57:40;3.03;;;1.40;;
27428;SDS011;14881;48.092;11.574;2023-12-22T06:00:06;3.90;;;1.33;;
27428;SDS011;14881;48.092;11.574;2023-12-22T06:02:35;2.17;;;1.23;;
27428;SDS011;14881;48.092;11.574;2023-12-22T06:05:01;2.60;;;1.50;;
27428;SDS011;14881;48.092;11.574;2023-12-22T06:07:29;3.67;;;1.27;;
27428;SDS011;14881;48.092;11.574;2023-12-22T06:09:55;2.45;;;1.13;;
27428;SDS011;14881;48.092;11.574;2023-12-22T06:12:21;4.47;;;1.52;;
27428;SDS011;14881;48.092;11.574;2023-12-22T06:14:48;5.13;;;1.85;;
27428;SDS011;14881;48.092;11.574;2023-12-22T06:17:14;5.32;;;1.48;;
27428;SDS011;14881;48.092;11.574;2023-12-22T06:19:40;3.50;;;1.52;;
27428;SDS011;14881;48.092;11.574;2023-12-22T06:22:07;5.38;;;1.63;;
27428;SDS011;14881;48.092;11.574;2023-12-22T06:24:35;4.28;;;1.40;;
27428;SDS011;14881;48.092;11.574;2023-12-22T06:27:01;5.55;;;2.00;;
27428;SDS011;14881;48.092;11.574;2023-12-22T06:29:28;5.95;;;1.48;;
27428;SDS011;14881;48.092;11.574;2023-12-22T06:31:57;2.08;;;1.15;;
27428;SDS011;14881;48.092;11.574;2023-12-22T06:34:23;6.10;;;1.50;;
27428;SDS011;14881;48.092;11.574;2023-12-22T06:36:51;4.72;;;1.83;;
27428;SDS011;14881;48.092;11.574;2023-12-22T06:39:18;3.58;;;1.60;;
27428;SDS011;14881;48.092;11.574;2023-12-22T06:41:45;5.65;;;1.63;;
27428;SDS011;14881;48.092;11.574;2023-12-22T06:44:12;5.38;;;1.73;;
27428;SDS011;14881;48.092;11.574;2023-12-22T06:46:38;7.40;;;1.73;;
27428;SDS011;14881;48.092;11.574;2023-12-22T06:49:05;3.30;;;1.80;;
27428;SDS011;14881;48.092;11.574;2023-12-22T06:51:33;4.35;;;1.58;;
27428;SDS011;14881;48.092;11.574;2023-12-22T06:54:00;6.88;;;2.00;;
27428;SDS011;14881;48.092;11.574;2023-12-22T06:56:29;2.55;;;1.55;;
27428;SDS011;14881;48.092;11.574;2023-12-22T06:58:57;8.52;;;1.65;;
27428;SDS011;14881;48.092;11.574;2023-12-22T07:01:25;2.83;;;1.52;;
27428;SDS011;14881;48.092;11.574;2023-12-22T07:03:53;4.38;;;1.45;;
27428;SDS011;14881;48.092;11.574;2023-12-22T07:06:20;4.38;;;1.67;;
27428;SDS011;14881;48.092;11.574;2023-12-22T07:08:57;10.27;;;2.03;;
27428;SDS011;14881;48.092;11.574;2023-12-22T07:11:39;4.93;;;1.42;;
27428;SDS011;14881;48.092;11.574;2023-12-22T07:14:07;3.53;;;1.40;;
27428;SDS011;14881;48.092;11.574;2023-12-22T07:16:34;4.72;;;1.85;;
27428;SDS011;14881;48.092;11.574;2023-12-22T07:19:01;6.20;;;1.60;;
27428;SDS011;14881;48.092;11.574;2023-12-22T07:21:28;5.03;;;1.60;;
27428;SDS011;14881;48.092;11.574;2023-12-22T07:23:54;6.00;;;1.65;;
27428;SDS011;14881;48.092;11.574;2023-12-22T07:26:21;11.55;;;1.85;;
27428;SDS011;14881;48.092;11.574;2023-12-22T07:28:47;8.20;;;1.90;;
27428;SDS011;14881;48.092;11.574;2023-12-22T07:31:18;7.53;;;1.95;;
27428;SDS011;14881;48.092;11.574;2023-12-22T07:33:44;4.88;;;1.60;;
27428;SDS011;14881;48.092;11.574;2023-12-22T07:36:11;6.13;;;1.88;;
27428;SDS011;14881;48.092;11.574;2023-12-22T07:38:38;8.05;;;2.08;;
27428;SDS011;14881;48.092;11.574;2023-12-22T07:41:06;4.28;;;1.83;;
27428;SDS011;14881;48.092;11.574;2023-12-22T07:43:32;6.43;;;1.70;;
27428;SDS011;14881;48.092;11.574;2023-12-22T07:46:00;7.97;;;2.53;;
27428;SDS011;14881;48.092;11.574;2023-12-22T07:48:28;6.55;;;2.22;;
27428;SDS011;14881;48.092;11.574;2023-12-22T07:50:55;8.00;;;1.95;;
27428;SDS011;14881;48.092;11.574;2023-12-22T07:53:21;6.25;;;1.83;;
27428;SDS011;14881;48.092;11.574;2023-12-22T07:55:48;4.72;;;1.52;;
27428;SDS011;14881;48.092;11.574;2023-12-22T07:58:14;6.40;;;1.67;;
27428;SDS011;14881;48.092;11.574;2023-12-22T08:00:41;8.00;;;1.65;;
27428;SDS011;14881;48.092;11.574;2023-12-22T08:03:07;5.32;;;1.60;;
27428;SDS011;14881;48.092;11.574;2023-12-22T08:05:34;6.00;;;2.00;;
27428;SDS011;14881;48.092;11.574;2023-12-22T08:08:01;7.65;;;2.38;;
27428;SDS011;14881;48.092;11.574;2023-12-22T08:10:27;5.35;;;1.70;;
27428;SDS011;14881;48.092;11.574;2023-12-22T08:12:54;5.35;;;1.70;;
27428;SDS011;14881;48.092;11.574;2023-12-22T08:15:20;6.88;;;2.13;;
27428;SDS011;14881;48.092;11.574;2023-12-22T08:17:58;4.18;;;1.90;;
27428;SDS011;14881;48.092;11.574;2023-12-22T08:20:24;4.97;;;1.70;;
27428;SDS011;14881;48.092;11.574;2023-12-22T08:22:58;7.47;;;1.80;;
27428;SDS011;14881;48.092;11.574;2023-12-22T08:25:31;4.15;;;1.58;;
27428;SDS011;14881;48.092;11.574;2023-12-22T08:27:58;4.35;;;1.60;;
27428;SDS011;14881;48.092;11.574;2023-12-22T08:30:24;6.50;;;2.75;;
27428;SDS011;14881;48.092;11.574;2023-12-22T08:32:50;4.80;;;1.63;;
27428;SDS011;14881;48.092;11.574;2023-12-22T08:35:17;4.63;;;1.80;;
27428;SDS011;14881;48.092;11.574;2023-12-22T08:37:43;8.05;;;2.38;;
27428;SDS011;14881;48.092;11.574;2023-12-22T08:40:11;9.35;;;2.42;;
27428;SDS011;14881;48.092;11.574;2023-12-22T08:42:37;6.07;;;1.90;;
27428;SDS011;14881;48.092;11.574;2023-12-22T08:45:05;6.65;;;2.53;;
27428;SDS011;14881;48.092;11.574;2023-12-22T08:47:32;7.20;;;2.40;;
27428;SDS011;14881;48.092;11.574;2023-12-22T08:49:59;6.43;;;1.70;;
27428;SDS011;14881;48.092;11.574;2023-12-22T08:52:30;6.05;;;1.83;;
27428;SDS011;14881;48.092;11.574;2023-12-22T08:54:57;3.50;;;1.95;;
27428;SDS011;14881;48.092;11.574;2023-12-22T08:57:24;4.55;;;1.60;;
27428;SDS011;14881;48.092;11.574;2023-12-22T08:59:50;6.88;;;1.73;;
27428;SDS011;14881;48.092;11.574;2023-12-22T09:02:17;6.88;;;2.17;;
27428;SDS011;14881;48.092;11.574;2023-12-22T09:04:44;4.93;;;1.80;;
27428;SDS011;14881;48.092;11.574;2023-12-22T09:07:10;6.40;;;2.17;;
27428;SDS011;14881;48.092;11.574;2023-12-22T09:09:37;4.68;;;1.63;;
27428;SDS011;14881;48.092;11.574;2023-12-22T09:12:03;6.03;;;1.98;;
27428;SDS011;14881;48.092;11.574;2023-12-22T09:14:31;4.28;;;1.88;;
27428;SDS011;14881;48.092;11.574;2023-12-22T09:16:57;5.90;;;1.70;;
27428;SDS011;14881;48.092;11.574;2023-12-22T09:19:24;10.68;;;2.45;;
27428;SDS011;14881;48.092;11.574;2023-12-22T09:21:52;6.68;;;1.77;;
27428;SDS011;14881;48.092;11.574;2023-12-22T09:24:18;5.22;;;2.00;;
27428;SDS011;14881;48.092;11.574;2023-12-22T09:26:44;11.95;;;2.08;;
27428;SDS011;14881;48.092;11.574;2023-12-22T09:29:11;6.38;;;1.92;;
27428;SDS011;14881;48.092;11.574;2023-12-22T09:31:38;3.90;;;2.22;;
27428;SDS011;14881;48.092;11.574;2023-12-22T09:34:04;4.30;;;2.15;;
27428;SDS011;14881;48.092;11.574;2023-12-22T09:36:33;6.88;;;1.92;;
27428;SDS011;14881;48.092;11.574;2023-12-22T09:39:00;4.55;;;1.80;;
27428;SDS011;14881;48.092;11.574;2023-12-22T09:41:26;6.53;;;1.70;;
27428;SDS011;14881;48.092;11.574;2023-12-22T09:43:53;5.78;;;1.52;;
27428;SDS011;14881;48.092;11.574;2023-12-22T09:46:25;4.05;;;1.60;;
27428;SDS011;14881;48.092;11.574;2023-12-22T09:48:53;3.47;;;1.45;;
27428;SDS011;14881;48.092;11.574;2023-12-22T09:51:20;2.20;;;1.10;;
27428;SDS011;14881;48.092;11.574;2023-12-22T09:53:47;2.25;;;1.23;;
27428;SDS011;14881;48.092;11.574;2023-12-22T09:56:15;2.03;;;0.98;;
27428;SDS011;14881;48.092;11.574;2023-12-22T09:58:43;4.05;;;1.50;;
27428;SDS011;14881;48.092;11.574;2023-12-22T10:01:11;2.42;;;1.20;;
27428;SDS011;14881;48.092;11.574;2023-12-22T10:03:39;1.70;;;1.05;;
27428;SDS011;14881;48.092;11.574;2023-12-22T10:06:11;1.73;;;1.13;;
27428;SDS011;14881;48.092;11.574;2023-12-22T10:08:38;2.17;;;0.95;;
27428;SDS011;14881;48.092;11.574;2023-12-22T10:11:05;3.42;;;1.40;;
27428;SDS011;14881;48.092;11.574;2023-12-22T10:13:36;1.77;;;0.90;;
27428;SDS011;14881;48.092;11.574;2023-12-22T10:16:04;3.05;;;1.05;;
27428;SDS011;14881;48.092;11.574;2023-12-22T10:18:32;5.38;;;1.30;;
27428;SDS011;14881;48.092;11.574;2023-12-22T10:20:59;1.88;;;1.13;;
27428;SDS011;14881;48.092;11.574;2023-12-22T10:23:27;1.77;;;0.77;;
27428;SDS011;14881;48.092;11.574;2023-12-22T10:25:53;0.85;;;0.80;;
27428;SDS011;14881;48.092;11.574;2023-12-22T10:28:21;2.17;;;0.65;;
27428;SDS011;14881;48.092;11.574;2023-12-22T10:30:51;1.70;;;0.70;;
27428;SDS011;14881;48.092;11.574;2023-12-22T10:33:19;1.80;;;0.75;;
27428;SDS011;14881;48.092;11.574;2023-12-22T10:35:45;1.63;;;0.90;;
27428;SDS011;14881;48.092;11.574;2023-12-22T10:38:12;1.52;;;0.90;;
27428;SDS011;14881;48.092;11.574;2023-12-22T10:40:39;3.03;;;0.98;;
27428;SDS011;14881;48.092;11.574;2023-12-22T10:43:06;1.83;;;1.00;;
27428;SDS011;14881;48.092;11.574;2023-12-22T10:45:32;1.92;;;1.10;;
27428;SDS011;14881;48.092;11.574;2023-12-22T10:47:59;3.25;;;1.23;;
27428;SDS011;14881;48.092;11.574;2023-12-22T10:50:27;2.88;;;1.15;;
27428;SDS011;14881;48.092;11.574;2023-12-22T10:52:54;2.53;;;1.30;;
27428;SDS011;14881;48.092;11.574;2023-12-22T10:55:20;6.15;;;2.28;;
27428;SDS011;14881;48.092;11.574;2023-12-22T10:57:48;4.22;;;1.70;;
27428;SDS011;14881;48.092;11.574;2023-12-22T11:00:15;4.28;;;1.50;;
27428;SDS011;14881;48.092;11.574;2023-12-22T11:02:42;3.53;;;1.40;;
27428;SDS011;14881;48.092;11.574;2023-12-22T11:05:13;5.50;;;1.80;;
27428;SDS011;14881;48.092;11.574;2023-12-22T11:07:45;8.50;;;1.90;;
27428;SDS011;14881;48.092;11.574;2023-12-22T11:10:16;4.35;;;1.80;;
27428;SDS011;14881;48.092;11.574;2023-12-22T11:12:46;5.13;;;1.98;;
27428;SDS011;14881;48.092;11.574;2023-12-22T11:15:14;7.90;;;2.00;;
27428;SDS011;14881;48.092;11.574;2023-12-22T11:17:44;3.40;;;2.00;;
27428;SDS011;14881;48.092;11.574;2023-12-22T11:20:13;5.80;;;1.45;;
27428;SDS011;14881;48.092;11.574;2023-12-22T11:22:40;7.13;;;2.25;;
27428;SDS011;14881;48.092;11.574;2023-12-22T11:25:08;4.78;;;1.67;;
27428;SDS011;14881;48.092;11.574;2023-12-22T11:27:41;9.40;;;1.88;;
27428;SDS011;14881;48.092;11.574;2023-12-22T11:30:10;4.10;;;1.50;;
27428;SDS011;14881;48.092;11.574;2023-12-22T11:32:38;6.55;;;2.00;;
27428;SDS011;14881;48.092;11.574;2023-12-22T11:35:06;5.75;;;1.80;;
27428;SDS011;14881;48.092;11.574;2023-12-22T11:37:34;5.40;;;2.20;;
27428;SDS011;14881;48.092;11.574;2023-12-22T11:40:01;8.93;;;1.90;;
27428;SDS011;14881;48.092;11.574;2023-12-22T11:42:29;5.07;;;1.73;;
27428;SDS011;14881;48.092;11.574;2023-12-22T11:45:02;5.30;;;1.90;;
27428;SDS011;14881;48.092;11.574;2023-12-22T11:47:29;3.75;;;1.27;;
27428;SDS011;14881;48.092;11.574;2023-12-22T11:49:56;4.45;;;1.67;;
27428;SDS011;14881;48.092;11.574;2023-12-22T11:52:26;3.28;;;1.83;;
27428;SDS011;14881;48.092;11.574;2023-12-22T11:54:54;9.55;;;4.88;;
27428;SDS011;14881;48.092;11.574;2023-12-22T11:57:34;10.43;;;5.63;;
27428;SDS011;14881;48.092;11.574;2023-12-22T12:00:02;4.85;;;1.58;;
27428;SDS011;14881;48.092;11.574;2023-12-22T12:02:32;5.07;;;1.92;;
27428;SDS011;14881;48.092;11.574;2023-12-22T12:05:01;3.03;;;1.60;;
27428;SDS011;14881;48.092;11.574;2023-12-22T12:07:41;3.60;;;1.60;;
27428;SDS011;14881;48.092;11.574;2023-12-22T12:10:10;7.75;;;2.20;;
27428;SDS011;14881;48.092;11.574;2023-12-22T12:12:38;4.82;;;1.85;;
27428;SDS011;14881;48.092;11.574;2023-12-22T12:15:12;6.93;;;2.15;;
27428;SDS011;14881;48.092;11.574;2023-12-22T12:17:43;7.63;;;2.10;;
27428;SDS011;14881;48.092;11.574;2023-12-22T12:20:10;8.43;;;2.05;;
27428;SDS011;14881;48.092;11.574;2023-12-22T12:22:38;3.97;;;2.40;;
27428;SDS011;14881;48.092;11.574;2023-12-22T12:25:08;5.53;;;2.10;;
27428;SDS011;14881;48.092;11.574;2023-12-22T12:27:47;4.20;;;2.08;;
27428;SDS011;14881;48.092;11.574;2023-12-22T12:30:14;4.00;;;1.90;;
27428;SDS011;14881;48.092;11.574;2023-12-22T12:32:41;6.00;;;2.10;;
27428;SDS011;14881;48.092;11.574;2023-12-22T12:35:11;8.55;;;2.00;;
27428;SDS011;14881;48.092;11.574;2023-12-22T12:37:40;8.20;;;2.00;;
27428;SDS011;14881;48.092;11.574;2023-12-22T12:40:10;8.50;;;2.38;;
27428;SDS011;14881;48.092;11.574;2023-12-22T12:42:37;6.72;;;2.55;;
27428;SDS011;14881;48.092;11.574;2023-12-22T12:45:04;6.72;;;2.20;;
27428;SDS011;14881;48.092;11.574;2023-12-22T12:47:31;7.90;;;1.90;;
27428;SDS011;14881;48.092;11.574;2023-12-22T12:49:58;4.03;;;1.75;;
27428;SDS011;14881;48.092;11.574;2023-12-22T12:52:26;5.95;;;1.80;;
27428;SDS011;14881;48.092;11.574;2023-12-22T12:54:53;6.82;;;2.05;;
27428;SDS011;14881;48.092;11.574;2023-12-22T12:57:19;5.47;;;2.10;;
27428;SDS011;14881;48.092;11.574;2023-12-22T12:59:46;5.03;;;1.80;;
27428;SDS011;14881;48.092;11.574;2023-12-22T13:02:13;8.82;;;1.80;;
27428;SDS011;14881;48.092;11.574;2023-12-22T13:04:40;5.60;;;1.60;;
27428;SDS011;14881;48.092;11.574;2023-12-22T13:07:08;4.57;;;2.08;;
27428;SDS011;14881;48.092;11.574;2023-12-22T13:09:36;1.70;;;1.30;;
27428;SDS011;14881;48.092;11.574;2023-12-22T13:12:03;3.55;;;1.35;;
27428;SDS011;14881;48.092;11.574;2023-12-22T13:14:30;5.10;;;2.00;;
27428;SDS011;14881;48.092;11.574;2023-12-22T13:16:57;6.18;;;1.98;;
27428;SDS011;14881;48.092;11.574;2023-12-22T13:19:25;4.03;;;1.77;;
27428;SDS011;14881;48.092;11.574;2023-12-22T13:21:52;2.35;;;1.27;;
27428;SDS011;14881;48.092;11.574;2023-12-22T13:24:19;5.38;;;1.77;;
27428;SDS011;14881;48.092;11.574;2023-12-22T13:26:58;3.00;;;1.58;;
27428;SDS011;14881;48.092;11.574;2023-12-22T13:29:25;4.65;;;1.80;;
27428;SDS011;14881;48.092;11.574;2023-12-22T13:31:52;3.63;;;1.52;;
27428;SDS011;14881;48.092;11.574;2023-12-22T13:34:18;5.05;;;1.50;;
27428;SDS011;14881;48.092;11.574;2023-12-22T13:36:45;5.18;;;1.88;;
27428;SDS011;14881;48.092;11.574;2023-12-22T13:39:11;3.45;;;1.35;;
27428;SDS011;14881;48.092;11.574;2023-12-22T13:41:38;6.88;;;1.60;;
27428;SDS011;14881;48.092;11.574;2023-12-22T13:44:08;3.75;;;1.55;;
27428;SDS011;14881;48.092;11.574;2023-12-22T13:46:34;3.97;;;1.50;;
27428;SDS011;14881;48.092;11.574;2023-12-22T13:49:01;4.07;;;1.70;;
27428;SDS011;14881;48.092;11.574;2023-12-22T13:51:38;4.38;;;1.92;;
27428;SDS011;14881;48.092;11.574;2023-12-22T13:54:04;5.35;;;1.63;;
27428;SDS011;14881;48.092;11.574;2023-12-22T13:56:32;5.93;;;2.10;;
27428;SDS011;14881;48.092;11.574;2023-12-22T13:59:00;5.28;;;2.33;;
27428;SDS011;14881;48.092;11.574;2023-12-22T14:01:28;1.90;;;1.52;;
27428;SDS011;14881;48.092;11.574;2023-12-22T14:03:54;3.70;;;1.67;;
27428;SDS011;14881;48.092;11.574;2023-12-22T14:06:23;2.42;;;1.40;;
27428;SDS011;14881;48.092;11.574;2023-12-22T14:08:59;4.47;;;1.50;;
27428;SDS011;14881;48.092;11.574;2023-12-22T14:11:25;3.65;;;1.42;;
27428;SDS011;14881;48.092;11.574;2023-12-22T14:13:57;5.72;;;1.52;;
27428;SDS011;14881;48.092;11.574;2023-12-22T14:16:26;4.80;;;1.55;;
27428;SDS011;14881;48.092;11.574;2023-12-22T14:18:56;4.10;;;1.60;;
27428;SDS011;14881;48.092;11.574;2023-12-22T14:21:26;3.20;;;1.40;;
27428;SDS011;14881;48.092;11.574;2023-12-22T14:23:52;4.00;;;1.40;;
27428;SDS011;14881;48.092;11.574;2023-12-22T14:26:51;1.75;;;1.10;;
27428;SDS011;14881;48.092;11.574;2023-12-22T14:29:21;3.20;;;1.60;;
27428;SDS011;14881;48.092;11.574;2023-12-22T14:31:49;5.43;;;1.58;;
27428;SDS011;14881;48.092;11.574;2023-12-22T14:34:15;2.75;;;1.30;;
27428;SDS011;14881;48.092;11.574;2023-12-22T14:36:45;1.55;;;1.20;;